createdAt,value
2023-07-20T00:02:06.618Z,39.42
2023-07-20T00:04:33.736Z,39.38
2023-07-20T00:07:02.091Z,39.28
2023-07-20T00:09:29.142Z,39.72
2023-07-20T00:11:55.939Z,39.91
2023-07-20T00:14:23.109Z,40.06
2023-07-20T00:16:56.892Z,40.07
2023-07-20T00:19:25.815Z,40.44
2023-07-20T00:21:53.137Z,40.20
2023-07-20T00:24:19.996Z,40.20
2023-07-20T00:26:46.909Z,40.42
2023-07-20T00:29:14.864Z,40.35
2023-07-20T00:31:41.681Z,40.44
2023-07-20T00:34:08.466Z,40.46
2023-07-20T00:36:35.225Z,40.81
2023-07-20T00:39:04.299Z,40.80
2023-07-20T00:41:31.170Z,40.86
2023-07-20T00:43:57.900Z,40.84
2023-07-20T00:46:26.654Z,41.08
2023-07-20T00:48:54.575Z,40.95
2023-07-20T00:51:22.649Z,40.90
2023-07-20T00:53:50.136Z,41.49
2023-07-20T00:56:17.358Z,41.53
2023-07-20T00:58:45.446Z,41.38
2023-07-20T01:01:12.634Z,41.30
2023-07-20T01:03:41.474Z,41.64
2023-07-20T01:06:36.038Z,41.75
2023-07-20T01:09:26.150Z,41.80
2023-07-20T01:12:05.047Z,42.07
2023-07-20T01:14:34.323Z,41.76
2023-07-20T01:17:01.423Z,41.85
2023-07-20T01:19:30.405Z,42.28
2023-07-20T01:22:28.532Z,42.25
2023-07-20T01:25:18.694Z,42.17
2023-07-20T01:28:18.616Z,42.00
2023-07-20T01:30:55.936Z,42.32
2023-07-20T01:33:25.286Z,42.44
2023-07-20T01:35:57.681Z,42.21
2023-07-20T01:38:26.652Z,42.31
2023-07-20T01:40:54.008Z,42.66
2023-07-20T01:43:22.016Z,42.52
2023-07-20T01:45:49.680Z,42.47
2023-07-20T01:48:16.681Z,42.50
2023-07-20T01:50:44.169Z,42.85
2023-07-20T01:53:11.304Z,42.79
2023-07-20T01:55:38.320Z,42.70
2023-07-20T01:58:05.651Z,43.20
2023-07-20T02:00:32.537Z,43.25
2023-07-20T02:02:59.596Z,43.46
2023-07-20T02:05:26.836Z,43.51
2023-07-20T02:07:53.861Z,43.45
2023-07-20T02:10:21.567Z,43.40
2023-07-20T02:12:48.941Z,44.07
2023-07-20T02:15:18.106Z,43.82
2023-07-20T02:17:45.194Z,43.46
2023-07-20T02:20:13.575Z,43.30
2023-07-20T02:22:41.556Z,43.48
2023-07-20T02:25:09.153Z,44.06
2023-07-20T02:27:36.142Z,43.85
2023-07-20T02:30:04.562Z,44.25
2023-07-20T02:32:38.187Z,44.20
2023-07-20T02:35:05.805Z,44.09
2023-07-20T02:37:34.556Z,44.47
2023-07-20T02:40:02.189Z,44.72
2023-07-20T02:42:32.950Z,44.47
2023-07-20T02:44:59.974Z,44.30
2023-07-20T02:47:27.364Z,43.88
2023-07-20T02:49:54.172Z,44.14
2023-07-20T02:52:22.810Z,44.86
2023-07-20T02:54:49.964Z,44.20
2023-07-20T02:57:16.765Z,44.96
2023-07-20T02:59:43.817Z,44.57
2023-07-20T03:02:11.737Z,44.33
2023-07-20T03:04:39.068Z,44.57
2023-07-20T03:07:06.581Z,45.29
2023-07-20T03:09:33.962Z,45.13
2023-07-20T03:12:00.898Z,45.12
2023-07-20T03:14:27.929Z,45.80
2023-07-20T03:16:56.670Z,46.11
2023-07-20T03:19:23.484Z,45.72
2023-07-20T03:21:50.918Z,45.49
2023-07-20T03:26:45.594Z,46.23
2023-07-20T03:29:12.720Z,45.70
2023-07-20T03:31:39.580Z,45.94
2023-07-20T03:34:07.274Z,46.08
2023-07-20T03:36:34.159Z,46.44
2023-07-20T03:39:01.161Z,46.50
2023-07-20T03:41:28.133Z,46.73
2023-07-20T03:43:55.558Z,46.84
2023-07-20T03:46:22.630Z,45.06
2023-07-20T03:48:49.813Z,44.97
2023-07-20T03:51:16.981Z,45.12
2023-07-20T03:53:44.223Z,45.44
2023-07-20T03:56:11.306Z,45.41
2023-07-20T03:58:38.459Z,45.65
2023-07-20T04:01:05.310Z,45.66
2023-07-20T04:03:32.236Z,46.17
2023-07-20T04:05:59.374Z,46.23
2023-07-20T04:08:26.406Z,45.96
2023-07-20T04:10:53.646Z,46.33
2023-07-20T04:13:20.514Z,46.01
2023-07-20T04:15:47.613Z,46.21
2023-07-20T04:18:14.794Z,46.17
2023-07-20T04:20:42.061Z,46.21
2023-07-20T04:23:09.133Z,46.69
2023-07-20T04:25:40.357Z,46.13
2023-07-20T04:28:11.489Z,46.10
2023-07-20T04:30:43.773Z,46.29
2023-07-20T04:33:10.908Z,46.54
2023-07-20T04:35:51.334Z,46.54
2023-07-20T04:38:22.433Z,46.84
2023-07-20T04:40:56.269Z,46.91
2023-07-20T04:43:23.267Z,46.99
2023-07-20T04:45:51.847Z,46.88
2023-07-20T04:48:19.047Z,47.10
2023-07-20T04:50:50.762Z,47.22
2023-07-20T04:53:18.242Z,47.72
2023-07-20T04:55:53.073Z,47.84
2023-07-20T04:58:22.498Z,47.61
2023-07-20T05:00:50.801Z,48.00
2023-07-20T05:03:18.913Z,48.46
2023-07-20T05:05:49.901Z,48.78
2023-07-20T05:08:17.949Z,49.11
2023-07-20T05:10:44.974Z,48.30
2023-07-20T05:13:12.179Z,48.46
2023-07-20T05:15:39.712Z,48.11
2023-07-20T05:18:11.162Z,48.27
2023-07-20T05:20:38.503Z,48.38
2023-07-20T05:23:05.697Z,47.75
2023-07-20T05:25:32.714Z,47.49
2023-07-20T05:27:59.838Z,47.71
2023-07-20T05:30:26.924Z,47.75
2023-07-20T05:32:55.712Z,47.94
2023-07-20T05:35:23.556Z,48.06
2023-07-20T05:37:51.067Z,48.71
2023-07-20T05:40:20.396Z,49.16
2023-07-20T05:42:49.920Z,50.13
2023-07-20T05:45:16.963Z,50.28
2023-07-20T05:47:43.970Z,49.68
2023-07-20T05:50:11.553Z,48.93
2023-07-20T05:52:39.863Z,48.73
2023-07-20T05:55:07.334Z,48.25
2023-07-20T05:57:34.688Z,48.21
2023-07-20T06:00:01.722Z,47.84
2023-07-20T06:02:40.997Z,47.94
2023-07-20T06:05:11.919Z,48.15
2023-07-20T06:07:39.704Z,48.51
2023-07-20T06:10:07.546Z,48.58
2023-07-20T06:12:34.640Z,48.12
2023-07-20T06:15:06.050Z,47.00
2023-07-20T06:17:34.856Z,46.46
2023-07-20T06:20:02.117Z,46.63
2023-07-20T06:22:31.336Z,47.72
2023-07-20T06:24:58.155Z,47.47
2023-07-20T06:27:25.058Z,47.10
2023-07-20T06:29:51.862Z,46.94
2023-07-20T06:32:18.594Z,47.07
2023-07-20T06:34:45.423Z,46.68
2023-07-20T06:37:12.404Z,46.23
2023-07-20T06:42:09.766Z,45.25
2023-07-20T06:44:41.778Z,44.58
2023-07-20T06:47:08.743Z,44.44
2023-07-20T06:49:35.659Z,44.39
2023-07-20T06:52:02.598Z,43.98
2023-07-20T06:54:35.230Z,43.71
2023-07-20T06:57:17.585Z,43.79
2023-07-20T07:02:14.957Z,43.71
2023-07-20T07:04:43.375Z,43.01
2023-07-20T07:07:11.109Z,42.91
2023-07-20T07:09:38.207Z,43.06
2023-07-20T07:12:05.796Z,42.70
2023-07-20T07:14:33.218Z,41.82
2023-07-20T07:17:05.159Z,42.06
2023-07-20T07:19:32.506Z,41.68
2023-07-20T07:22:00.860Z,42.07
2023-07-20T07:24:29.534Z,42.08
2023-07-20T07:26:57.043Z,41.64
2023-07-20T07:29:24.163Z,41.16
2023-07-20T07:31:51.030Z,41.22
2023-07-20T07:34:17.863Z,41.41
2023-07-20T07:36:45.623Z,41.76
2023-07-20T07:41:42.111Z,41.59
2023-07-20T07:44:08.895Z,41.94
2023-07-20T07:46:35.901Z,42.12
2023-07-20T07:49:02.772Z,42.22
2023-07-20T07:51:29.637Z,40.87
2023-07-20T07:53:56.588Z,40.18
2023-07-20T07:56:24.865Z,39.00
2023-07-20T07:58:55.060Z,39.40
2023-07-20T08:01:22.130Z,40.26
2023-07-20T08:03:49.381Z,40.59
2023-07-20T08:06:16.729Z,40.87
2023-07-20T08:08:43.932Z,41.55
2023-07-20T08:11:10.778Z,40.39
2023-07-20T08:13:37.931Z,39.59
2023-07-20T08:16:05.051Z,38.88
2023-07-20T08:18:32.418Z,38.58
2023-07-20T08:20:59.742Z,38.60
2023-07-20T08:23:28.604Z,38.16
2023-07-20T08:25:55.832Z,38.00
2023-07-20T08:28:22.987Z,38.10
2023-07-20T08:30:50.906Z,38.91
2023-07-20T08:33:20.499Z,38.78
2023-07-20T08:35:48.459Z,38.61
2023-07-20T08:38:15.767Z,39.21
2023-07-20T08:40:45.640Z,39.62
2023-07-20T08:43:13.839Z,40.15
2023-07-20T08:45:42.340Z,39.31
2023-07-20T08:48:10.133Z,38.22
2023-07-20T08:50:40.180Z,37.80
2023-07-20T08:53:08.392Z,36.95
2023-07-20T08:55:37.114Z,36.92
2023-07-20T08:58:05.522Z,35.73
2023-07-20T09:00:33.208Z,35.50
2023-07-20T09:03:04.212Z,34.94
2023-07-20T09:08:01.433Z,33.90
2023-07-20T09:10:28.743Z,34.95
2023-07-20T09:12:56.609Z,35.68
2023-07-20T09:15:24.441Z,36.53
2023-07-20T09:17:52.437Z,37.02
2023-07-20T09:20:22.880Z,37.25
2023-07-20T09:22:53.863Z,37.88
2023-07-20T09:25:26.628Z,38.12
2023-07-20T09:27:57.000Z,37.62
2023-07-20T09:30:31.744Z,38.26
2023-07-20T09:32:59.886Z,38.33
2023-07-20T09:35:33.090Z,37.43
2023-07-20T09:50:51.857Z,35.67
2023-07-20T09:53:20.147Z,35.13
2023-07-20T09:55:48.778Z,34.29
2023-07-20T09:58:17.194Z,33.45
2023-07-20T10:03:25.751Z,33.58
2023-07-20T10:06:00.481Z,34.57
2023-07-20T10:11:03.176Z,35.64
2023-07-20T10:13:31.299Z,36.42
2023-07-20T10:16:06.646Z,36.59
2023-07-20T10:19:03.147Z,36.42
2023-07-20T10:24:03.243Z,35.35
2023-07-20T10:26:30.545Z,35.28
2023-07-20T10:28:58.034Z,35.75
2023-07-20T10:31:30.125Z,35.59
2023-07-20T10:34:03.228Z,35.23
2023-07-20T10:36:32.173Z,34.93
2023-07-20T10:38:59.948Z,34.71
2023-07-20T10:41:37.271Z,34.52
2023-07-20T10:44:14.486Z,33.83
2023-07-20T10:46:41.415Z,33.86
2023-07-20T10:49:10.395Z,33.76
2023-07-20T10:51:42.351Z,33.38
2023-07-20T10:54:29.659Z,33.86
2023-07-20T10:56:57.945Z,33.96
2023-07-20T10:59:24.778Z,34.36
2023-07-20T11:02:02.665Z,34.34
2023-07-20T11:04:43.302Z,33.35
2023-07-20T11:07:10.769Z,32.85
2023-07-20T11:09:39.447Z,32.93
2023-07-20T11:12:19.377Z,33.26
2023-07-20T11:15:00.140Z,32.52
2023-07-20T11:17:31.840Z,32.84
2023-07-20T11:22:34.751Z,32.87
2023-07-20T11:25:01.781Z,31.88
2023-07-20T11:27:31.322Z,32.10
2023-07-20T11:29:58.523Z,31.44
2023-07-20T11:32:25.881Z,31.43
2023-07-20T11:34:53.147Z,32.09
2023-07-20T11:37:20.096Z,31.94
2023-07-20T11:39:47.878Z,31.34
2023-07-20T11:43:20.059Z,31.87
2023-07-20T11:45:06.524Z,30.33
2023-07-20T11:47:34.507Z,30.48
2023-07-20T11:50:05.274Z,30.43
2023-07-20T11:52:34.148Z,30.48
2023-07-20T11:55:01.501Z,30.37
2023-07-20T11:57:31.860Z,30.61
2023-07-20T12:00:03.011Z,30.68
2023-07-20T12:02:40.424Z,30.56
2023-07-20T12:05:09.450Z,30.77
2023-07-20T12:07:38.385Z,30.54
2023-07-20T12:10:11.589Z,30.85
2023-07-20T12:12:40.198Z,30.27
2023-07-20T12:15:23.937Z,30.32
2023-07-20T12:17:54.320Z,31.08
2023-07-20T12:20:32.121Z,30.65
2023-07-20T12:23:05.996Z,30.42
2023-07-20T12:25:43.682Z,30.03
2023-07-20T12:28:15.739Z,31.09
2023-07-20T12:30:45.577Z,30.13
2023-07-20T12:33:16.920Z,30.64
2023-07-20T12:35:45.083Z,30.09
2023-07-20T12:38:12.294Z,30.48
2023-07-20T12:40:39.117Z,30.10
2023-07-20T12:43:06.180Z,29.78
2023-07-20T12:45:33.604Z,29.74
2023-07-20T12:48:00.685Z,30.17
2023-07-20T12:50:27.893Z,30.17
2023-07-20T12:52:55.117Z,30.64
2023-07-20T12:55:22.016Z,31.23
2023-07-20T12:57:49.089Z,31.72
2023-07-20T13:00:17.514Z,31.21
2023-07-20T13:02:44.730Z,31.68
2023-07-20T13:05:11.803Z,31.37
2023-07-20T13:10:11.541Z,31.85
2023-07-20T13:12:39.469Z,31.33
2023-07-20T13:15:08.058Z,31.46
2023-07-20T13:17:36.401Z,31.36
2023-07-20T13:20:08.401Z,31.21
2023-07-20T13:22:36.173Z,30.97
2023-07-20T13:25:03.692Z,31.56
2023-07-20T13:27:33.757Z,31.14
2023-07-20T13:30:10.377Z,30.69
2023-07-20T13:32:37.646Z,29.94
2023-07-20T13:35:05.790Z,30.10
2023-07-20T13:37:34.808Z,29.67
2023-07-20T13:40:02.030Z,29.35
2023-07-20T13:42:34.031Z,29.52
2023-07-20T13:45:02.106Z,29.16
2023-07-20T13:47:34.294Z,28.60
2023-07-20T13:50:04.825Z,29.14
2023-07-20T13:55:06.084Z,27.90
2023-07-20T13:57:35.276Z,28.20
2023-07-20T14:00:05.322Z,27.53
2023-07-20T14:07:41.069Z,27.14
2023-07-20T14:12:38.118Z,27.77
2023-07-20T14:15:05.948Z,27.78
2023-07-20T14:17:33.224Z,27.73
2023-07-20T14:20:00.323Z,27.69
2023-07-20T14:22:27.485Z,28.06
2023-07-20T14:24:54.981Z,28.46
2023-07-20T14:27:22.335Z,28.73
2023-07-20T14:29:49.382Z,28.77
2023-07-20T14:32:16.424Z,28.59
2023-07-20T14:34:44.384Z,28.28
2023-07-20T14:37:14.483Z,28.57
2023-07-20T14:39:41.665Z,28.77
2023-07-20T14:42:08.829Z,30.13
2023-07-20T14:44:35.720Z,28.34
2023-07-20T14:47:14.251Z,28.85
2023-07-20T14:49:42.834Z,28.75
2023-07-20T14:54:39.933Z,28.32
2023-07-20T14:57:14.786Z,29.55
2023-07-20T14:59:45.278Z,28.23
2023-07-20T15:02:12.539Z,27.09
2023-07-20T15:04:47.355Z,27.31
2023-07-20T15:07:14.176Z,25.67
2023-07-20T15:09:41.006Z,24.50
2023-07-20T15:12:08.786Z,23.70
2023-07-20T15:14:36.148Z,20.87
2023-07-20T15:17:03.144Z,19.78
2023-07-20T15:19:30.036Z,18.99
2023-07-20T15:21:57.354Z,17.06
2023-07-20T15:24:24.285Z,17.56
2023-07-20T15:26:51.207Z,16.15
2023-07-20T15:34:19.289Z,15.64
2023-07-20T15:36:46.569Z,14.80
2023-07-20T15:39:13.438Z,14.58
2023-07-20T15:41:40.273Z,15.00
2023-07-20T15:44:07.242Z,14.92
2023-07-20T15:46:40.450Z,15.62
2023-07-20T15:49:08.294Z,15.56
2023-07-20T15:51:41.085Z,16.70
2023-07-20T15:54:12.760Z,18.25
2023-07-20T15:56:41.017Z,19.92
2023-07-20T15:59:12.116Z,20.84
2023-07-20T16:01:40.207Z,21.72
2023-07-20T16:04:07.998Z,22.22
2023-07-20T16:06:36.721Z,23.04
2023-07-20T16:09:07.433Z,22.45
2023-07-20T16:11:37.678Z,23.65
2023-07-20T16:14:06.919Z,23.26
2023-07-20T16:16:36.000Z,24.42
2023-07-20T16:19:03.807Z,23.98
2023-07-20T16:21:33.118Z,23.41
2023-07-20T16:24:00.616Z,23.65
2023-07-20T16:26:27.886Z,23.55
2023-07-20T16:29:23.265Z,23.65
2023-07-20T16:32:10.548Z,25.11
2023-07-20T16:34:28.656Z,23.77
2023-07-20T16:36:57.751Z,24.58
2023-07-20T16:44:24.747Z,23.24
2023-07-20T16:49:21.515Z,22.77
2023-07-20T16:51:48.511Z,23.66
2023-07-20T16:54:17.955Z,23.30
2023-07-20T16:56:45.400Z,23.89
2023-07-20T16:59:12.425Z,24.05
2023-07-20T17:01:39.528Z,24.24
2023-07-20T17:04:06.631Z,24.04
2023-07-20T17:06:33.717Z,23.47
2023-07-20T17:09:02.264Z,24.17
2023-07-20T17:11:29.307Z,24.65
2023-07-20T17:13:56.329Z,24.23
2023-07-20T17:16:23.283Z,24.05
2023-07-20T17:18:50.208Z,24.23
2023-07-20T17:21:17.255Z,23.95
2023-07-20T17:28:46.960Z,24.61
2023-07-20T17:31:14.167Z,25.06
2023-07-20T17:33:41.190Z,24.16
2023-07-20T17:38:42.996Z,24.40
2023-07-20T17:41:12.264Z,24.48
2023-07-20T17:43:40.959Z,24.39
2023-07-20T17:48:37.848Z,25.04
2023-07-20T17:51:04.979Z,24.74
2023-07-20T17:53:31.903Z,24.86
2023-07-20T17:55:58.892Z,24.64
2023-07-20T17:58:25.831Z,25.16
2023-07-20T18:00:53.897Z,25.35
2023-07-20T18:03:20.922Z,25.54
2023-07-20T18:05:47.784Z,25.76
2023-07-20T18:08:14.750Z,25.39
2023-07-20T18:10:41.662Z,25.10
2023-07-20T18:13:08.420Z,25.52
2023-07-20T18:15:35.591Z,25.29
2023-07-20T18:18:02.609Z,25.49
2023-07-20T18:20:29.489Z,26.51
2023-07-20T18:22:56.241Z,26.05
2023-07-20T18:25:23.313Z,26.09
2023-07-20T18:27:50.210Z,26.06
2023-07-20T18:30:20.021Z,25.64
2023-07-20T18:32:47.594Z,25.81
2023-07-20T18:35:14.479Z,25.96
2023-07-20T18:37:41.228Z,26.41
2023-07-20T18:40:08.690Z,26.60
2023-07-20T18:42:35.967Z,26.99
2023-07-20T18:45:03.052Z,27.15
2023-07-20T18:47:32.649Z,29.01
2023-07-20T18:49:59.712Z,29.58
2023-07-20T18:52:26.507Z,29.77
2023-07-20T18:54:53.444Z,29.82
2023-07-20T18:57:21.784Z,30.15
2023-07-20T18:59:50.607Z,30.27
2023-07-20T19:02:17.435Z,30.31
2023-07-20T19:04:44.185Z,30.13
2023-07-20T19:07:11.028Z,30.60
2023-07-20T19:09:37.791Z,30.43
2023-07-20T19:12:04.883Z,30.59
2023-07-20T19:14:32.046Z,30.25
2023-07-20T19:16:59.140Z,30.76
2023-07-20T19:19:26.398Z,31.18
2023-07-20T19:21:53.244Z,31.36
2023-07-20T19:24:20.245Z,31.55
2023-07-20T19:26:47.253Z,31.70
2023-07-20T19:29:14.335Z,31.42
2023-07-20T19:31:42.226Z,31.65
2023-07-20T19:34:09.243Z,30.90
2023-07-20T19:36:37.100Z,31.22
2023-07-20T19:39:04.939Z,31.66
2023-07-20T19:41:32.010Z,31.87
2023-07-20T19:43:59.284Z,31.49
2023-07-20T19:46:26.832Z,31.42
2023-07-20T19:48:54.120Z,31.50
2023-07-20T19:51:20.995Z,31.63
2023-07-20T19:56:18.738Z,31.67
2023-07-20T19:58:45.788Z,31.78
2023-07-20T20:03:42.927Z,31.44
2023-07-20T20:06:13.157Z,31.67
2023-07-20T20:08:39.946Z,31.84
2023-07-20T20:13:36.578Z,32.00
2023-07-20T20:16:05.087Z,31.78
2023-07-20T20:18:33.631Z,31.81
2023-07-20T20:21:01.063Z,31.77
2023-07-20T20:23:28.007Z,31.53
2023-07-20T20:25:55.306Z,31.81
2023-07-20T20:28:22.698Z,31.69
2023-07-20T20:30:53.066Z,31.93
2023-07-20T20:33:25.369Z,31.89
2023-07-20T20:35:53.504Z,31.70
2023-07-20T20:38:23.695Z,31.54
2023-07-20T20:40:54.546Z,31.98
2023-07-20T20:43:22.601Z,31.76
2023-07-20T20:45:50.605Z,31.97
2023-07-20T20:48:18.019Z,31.98
2023-07-20T20:50:45.189Z,32.34
2023-07-20T20:53:16.256Z,32.20
2023-07-20T20:55:43.053Z,32.15
2023-07-20T20:58:10.170Z,32.08
2023-07-20T21:00:37.317Z,31.66
2023-07-20T21:03:04.194Z,31.65
2023-07-20T21:05:38.692Z,31.73
2023-07-20T21:08:06.032Z,31.85
2023-07-20T21:10:34.104Z,31.65
2023-07-20T21:13:04.942Z,31.60
2023-07-20T21:15:33.283Z,31.84
2023-07-20T21:18:00.243Z,31.65
2023-07-20T21:20:27.149Z,31.61
2023-07-20T21:22:54.218Z,32.08
2023-07-20T21:25:21.054Z,31.58
2023-07-20T21:27:47.791Z,32.13
2023-07-20T21:30:14.749Z,32.38
2023-07-20T21:32:41.875Z,32.18
2023-07-20T21:35:09.232Z,31.99
2023-07-20T21:37:36.084Z,31.96
2023-07-20T21:40:04.462Z,31.70
2023-07-20T21:42:32.000Z,31.92
2023-07-20T21:44:58.814Z,32.48
2023-07-20T21:47:26.278Z,32.34
2023-07-20T21:49:53.132Z,32.02
2023-07-20T21:52:19.909Z,32.15
2023-07-20T21:54:46.957Z,31.86
2023-07-20T21:57:14.040Z,32.23
2023-07-20T21:59:41.602Z,31.89
2023-07-20T22:02:08.409Z,32.31
2023-07-20T22:04:35.562Z,32.44
2023-07-20T22:07:02.531Z,32.64
2023-07-20T22:09:29.894Z,32.68
2023-07-20T22:11:56.659Z,32.79
2023-07-20T22:14:23.445Z,32.86
2023-07-20T22:16:50.301Z,32.96
2023-07-20T22:19:20.037Z,32.57
2023-07-20T22:21:47.989Z,32.80
2023-07-20T22:24:15.019Z,33.04
2023-07-20T22:26:41.957Z,33.19
2023-07-20T22:29:08.849Z,33.38
2023-07-20T22:31:35.903Z,33.47
2023-07-20T22:34:02.732Z,33.87
2023-07-20T22:36:29.469Z,33.81
2023-07-20T22:38:56.416Z,33.71
2023-07-20T22:41:23.294Z,33.59
2023-07-20T22:43:50.097Z,33.77
2023-07-20T22:46:18.484Z,33.79
2023-07-20T22:48:45.754Z,33.64
2023-07-20T22:51:12.563Z,33.38
2023-07-20T22:53:40.157Z,33.46
2023-07-20T22:56:07.162Z,33.35
2023-07-20T22:58:34.430Z,33.47
2023-07-20T23:01:01.643Z,33.47
2023-07-20T23:03:28.797Z,33.22
2023-07-20T23:05:55.903Z,33.79
2023-07-20T23:08:23.268Z,33.77
2023-07-20T23:10:51.563Z,34.25
2023-07-20T23:13:18.496Z,33.95
2023-07-20T23:15:45.420Z,33.78
2023-07-20T23:18:12.480Z,33.59
2023-07-20T23:20:39.328Z,33.86
2023-07-20T23:23:06.557Z,33.73
2023-07-20T23:25:33.581Z,34.01
2023-07-20T23:28:00.309Z,33.99
2023-07-20T23:30:30.508Z,34.25
2023-07-20T23:32:57.346Z,34.03
2023-07-20T23:35:24.317Z,33.88
2023-07-20T23:37:51.577Z,33.92
2023-07-20T23:40:19.583Z,33.83
2023-07-20T23:42:47.971Z,34.43
2023-07-20T23:45:17.796Z,34.64
2023-07-20T23:47:44.740Z,34.80
2023-07-20T23:50:11.825Z,34.75
2023-07-20T23:52:38.923Z,34.91
2023-07-20T23:55:10.273Z,34.97
2023-07-20T23:57:38.882Z,35.43
